createdAt,value
2018-08-25T00:01:38.782Z,15.70
2018-08-25T00:04:07.944Z,15.74
2018-08-25T00:06:37.013Z,15.72
2018-08-25T00:09:08.972Z,15.25
2018-08-25T00:11:38.078Z,14.80
2018-08-25T00:14:07.248Z,14.52
2018-08-25T00:16:36.871Z,14.86
2018-08-25T00:19:06.194Z,14.98
2018-08-25T00:21:35.574Z,14.74
2018-08-25T00:24:04.768Z,15.03
2018-08-25T00:26:33.861Z,15.04
2018-08-25T00:29:02.988Z,15.02
2018-08-25T00:31:32.081Z,14.99
2018-08-25T00:34:01.129Z,15.04
2018-08-25T00:36:30.253Z,15.00
2018-08-25T00:38:59.337Z,15.08
2018-08-25T00:41:28.503Z,14.99
2018-08-25T00:43:57.663Z,15.10
2018-08-25T00:46:26.785Z,14.74
2018-08-25T00:48:55.869Z,15.01
2018-08-25T00:51:25.087Z,14.88
2018-08-25T00:53:54.286Z,14.90
2018-08-25T00:56:23.410Z,14.86
2018-08-25T00:58:52.555Z,14.92
2018-08-25T01:01:21.687Z,15.00
2018-08-25T01:03:50.861Z,14.95
2018-08-25T01:06:20.163Z,15.04
2018-08-25T01:08:49.292Z,15.21
2018-08-25T01:11:19.408Z,15.23
2018-08-25T01:13:48.506Z,15.34
2018-08-25T01:16:18.012Z,15.34
2018-08-25T01:18:47.170Z,15.36
2018-08-25T01:21:16.265Z,15.38
2018-08-25T01:23:45.372Z,15.35
2018-08-25T01:26:14.513Z,15.32
2018-08-25T01:28:43.611Z,15.31
2018-08-25T01:31:12.715Z,15.14
2018-08-25T01:33:41.831Z,15.31
2018-08-25T01:36:10.926Z,15.21
2018-08-25T01:38:39.972Z,15.20
2018-08-25T01:41:09.095Z,15.22
2018-08-25T01:43:38.282Z,15.23
2018-08-25T01:46:07.403Z,15.26
2018-08-25T01:48:36.520Z,15.30
2018-08-25T01:51:05.600Z,15.29
2018-08-25T01:53:34.727Z,15.22
2018-08-25T01:56:03.860Z,15.26
2018-08-25T01:58:32.974Z,15.27
2018-08-25T02:01:02.096Z,15.32
2018-08-25T02:03:31.534Z,15.33
2018-08-25T02:06:02.026Z,15.32
2018-08-25T02:08:31.137Z,15.32
2018-08-25T02:11:00.261Z,15.25
2018-08-25T02:13:29.361Z,15.40
2018-08-25T02:15:58.579Z,15.19
2018-08-25T02:18:27.711Z,15.29
2018-08-25T02:20:56.858Z,14.90
2018-08-25T02:23:26.144Z,14.93
2018-08-25T02:25:55.314Z,15.01
2018-08-25T02:28:24.391Z,15.15
2018-08-25T02:30:53.559Z,15.24
2018-08-25T02:33:22.651Z,15.27
2018-08-25T02:35:51.790Z,15.14
2018-08-25T02:38:21.003Z,15.22
2018-08-25T02:40:50.189Z,15.15
2018-08-25T02:43:19.287Z,15.19
2018-08-25T02:45:50.590Z,15.12
2018-08-25T02:48:19.664Z,15.15
2018-08-25T02:50:48.751Z,15.10
2018-08-25T02:53:17.835Z,15.09
2018-08-25T02:55:46.911Z,15.16
2018-08-25T02:58:15.999Z,15.14
2018-08-25T03:00:45.109Z,15.04
2018-08-25T03:03:14.210Z,14.81
2018-08-25T03:05:43.343Z,14.91
2018-08-25T03:08:12.439Z,14.81
2018-08-25T03:10:41.577Z,14.84
2018-08-25T03:13:10.633Z,14.96
2018-08-25T03:15:39.739Z,14.69
2018-08-25T03:18:08.863Z,14.78
2018-08-25T03:20:37.932Z,14.59
2018-08-25T03:23:07.153Z,14.36
2018-08-25T03:25:36.260Z,14.60
2018-08-25T03:28:05.463Z,14.19
2018-08-25T03:30:34.579Z,14.52
2018-08-25T03:33:03.701Z,14.62
2018-08-25T03:35:32.778Z,14.73
2018-08-25T03:38:01.901Z,14.84
2018-08-25T03:40:31.002Z,14.79
2018-08-25T03:43:00.087Z,14.72
2018-08-25T03:45:29.183Z,14.73
2018-08-25T03:47:58.310Z,14.86
2018-08-25T03:50:27.403Z,14.76
2018-08-25T03:52:56.506Z,14.81
2018-08-25T03:55:25.637Z,14.94
2018-08-25T03:57:55.825Z,14.94
2018-08-25T04:00:24.755Z,15.05
2018-08-25T04:02:53.636Z,15.07
2018-08-25T04:05:22.533Z,15.04
2018-08-25T04:07:51.507Z,14.97
2018-08-25T04:10:20.407Z,14.93
2018-08-25T04:12:49.463Z,14.73
2018-08-25T04:15:18.507Z,14.68
2018-08-25T04:17:47.448Z,14.84
2018-08-25T04:20:16.453Z,14.88
2018-08-25T04:22:46.488Z,14.74
2018-08-25T04:25:15.569Z,14.65
2018-08-25T04:27:44.479Z,14.50
2018-08-25T04:30:13.439Z,14.67
2018-08-25T04:32:42.432Z,14.72
2018-08-25T04:35:11.356Z,14.70
2018-08-25T04:37:40.248Z,14.73
2018-08-25T04:40:14.779Z,14.77
2018-08-25T04:42:45.579Z,14.73
2018-08-25T04:45:14.488Z,14.69
2018-08-25T04:47:43.488Z,14.79
2018-08-25T04:50:12.389Z,14.88
2018-08-25T04:52:41.321Z,14.82
2018-08-25T04:55:10.249Z,14.86
2018-08-25T04:57:39.134Z,14.84
2018-08-25T05:00:08.120Z,14.84
2018-08-25T05:02:37.039Z,14.83
2018-08-25T05:05:05.980Z,14.63
2018-08-25T05:07:35.029Z,14.67
2018-08-25T05:10:04.008Z,14.78
2018-08-25T05:12:33.001Z,14.76
2018-08-25T05:15:01.911Z,14.72
2018-08-25T05:17:32.988Z,14.75
2018-08-25T05:20:01.937Z,14.76
2018-08-25T05:22:30.824Z,14.59
2018-08-25T05:24:59.741Z,14.42
2018-08-25T05:27:28.666Z,14.48
2018-08-25T05:29:57.571Z,14.58
2018-08-25T05:32:26.479Z,14.60
2018-08-25T05:34:55.403Z,14.63
2018-08-25T05:37:24.311Z,14.63
2018-08-25T05:39:53.261Z,14.62
2018-08-25T05:42:22.289Z,14.75
2018-08-25T05:44:51.201Z,14.74
2018-08-25T05:47:20.517Z,14.81
2018-08-25T05:49:49.478Z,14.74
2018-08-25T05:52:18.356Z,14.84
2018-08-25T05:54:47.308Z,14.83
2018-08-25T05:57:16.307Z,14.82
2018-08-25T05:59:45.262Z,14.90
2018-08-25T06:02:14.239Z,14.86
2018-08-25T06:04:43.212Z,14.93
2018-08-25T06:07:12.156Z,15.03
2018-08-25T06:09:41.200Z,15.06
2018-08-25T06:12:10.120Z,15.13
2018-08-25T06:14:39.140Z,15.11
2018-08-25T06:17:08.264Z,15.16
2018-08-25T06:19:37.235Z,15.15
2018-08-25T06:22:07.164Z,15.18
2018-08-25T06:24:36.124Z,15.19
2018-08-25T06:27:05.322Z,15.29
2018-08-25T06:29:34.298Z,14.95
2018-08-25T06:32:03.267Z,15.05
2018-08-25T06:34:32.208Z,15.04
2018-08-25T06:37:01.734Z,14.67
2018-08-25T06:39:30.649Z,14.94
2018-08-25T06:41:59.619Z,15.02
2018-08-25T06:44:28.546Z,15.03
2018-08-25T06:46:57.523Z,15.01
2018-08-25T06:49:26.536Z,15.10
2018-08-25T06:51:55.500Z,15.11
2018-08-25T06:54:24.433Z,15.07
2018-08-25T06:56:53.396Z,15.23
2018-08-25T06:59:22.385Z,15.27
2018-08-25T07:01:51.321Z,15.46
2018-08-25T07:04:20.269Z,15.54
2018-08-25T07:06:50.283Z,15.68
2018-08-25T07:09:19.250Z,15.97
2018-08-25T07:11:48.116Z,16.25
2018-08-25T07:14:17.029Z,16.75
2018-08-25T07:16:46.046Z,16.76
2018-08-25T07:19:14.956Z,16.57
2018-08-25T07:21:43.880Z,16.33
2018-08-25T07:24:12.816Z,16.36
2018-08-25T07:26:41.714Z,16.09
2018-08-25T07:29:10.634Z,16.53
2018-08-25T07:31:39.550Z,16.83
2018-08-25T07:34:08.504Z,17.11
2018-08-25T07:36:37.392Z,17.37
2018-08-25T07:39:09.459Z,17.14
2018-08-25T07:41:38.448Z,16.71
2018-08-25T07:44:07.379Z,16.43
2018-08-25T07:46:36.388Z,16.47
2018-08-25T07:49:05.312Z,16.46
2018-08-25T07:51:34.264Z,16.38
2018-08-25T07:54:04.521Z,16.45
2018-08-25T07:56:33.589Z,16.53
2018-08-25T07:59:02.681Z,16.55
2018-08-25T08:01:31.750Z,16.56
2018-08-25T08:04:00.743Z,16.66
2018-08-25T08:06:30.772Z,17.09
2018-08-25T08:09:02.010Z,17.08
2018-08-25T08:11:31.192Z,17.19
2018-08-25T08:14:00.202Z,17.33
2018-08-25T08:16:30.186Z,17.45
2018-08-25T08:18:59.172Z,17.29
2018-08-25T08:21:28.093Z,17.18
2018-08-25T08:23:56.980Z,17.10
2018-08-25T08:26:26.014Z,17.08
2018-08-25T08:28:54.932Z,16.87
2018-08-25T08:31:23.857Z,16.72
2018-08-25T08:33:52.784Z,16.77
2018-08-25T08:36:21.890Z,16.54
2018-08-25T08:38:50.817Z,16.57
2018-08-25T08:41:19.744Z,15.60
2018-08-25T08:43:48.725Z,15.10
2018-08-25T08:46:23.017Z,15.06
2018-08-25T08:48:52.081Z,15.19
2018-08-25T08:51:21.051Z,15.28
2018-08-25T08:53:50.032Z,15.39
2018-08-25T08:56:18.976Z,15.49
2018-08-25T08:58:47.910Z,15.44
2018-08-25T09:01:16.914Z,15.50
2018-08-25T09:03:45.829Z,15.57
2018-08-25T09:06:14.764Z,15.64
2018-08-25T09:08:43.696Z,15.69
2018-08-25T09:11:12.681Z,15.65
2018-08-25T09:13:41.552Z,15.64
2018-08-25T09:16:10.472Z,15.65
2018-08-25T09:18:41.224Z,15.74
2018-08-25T09:21:10.213Z,15.72
2018-08-25T09:23:39.140Z,15.75
2018-08-25T09:26:08.108Z,15.89
2018-08-25T09:28:37.065Z,15.95
2018-08-25T09:31:06.110Z,16.02
2018-08-25T09:33:35.072Z,16.06
2018-08-25T09:36:04.100Z,16.27
2018-08-25T09:38:36.992Z,16.31
2018-08-25T09:41:05.907Z,16.44
2018-08-25T09:43:34.937Z,16.67
2018-08-25T09:46:03.962Z,16.70
2018-08-25T09:48:32.882Z,16.59
2018-08-25T09:51:01.852Z,16.76
2018-08-25T09:53:30.844Z,16.72
2018-08-25T09:55:59.773Z,16.97
2018-08-25T09:58:28.664Z,17.03
2018-08-25T10:01:03.078Z,17.11
2018-08-25T10:03:32.112Z,17.11
2018-08-25T10:06:01.162Z,17.20
2018-08-25T10:08:30.244Z,16.99
2018-08-25T10:10:59.314Z,17.07
2018-08-25T10:13:28.169Z,17.13
2018-08-25T10:15:57.177Z,17.09
2018-08-25T10:18:26.194Z,16.96
2018-08-25T10:20:57.314Z,17.05
2018-08-25T10:23:26.615Z,17.14
2018-08-25T10:25:55.993Z,17.23
2018-08-25T10:28:26.392Z,17.17
2018-08-25T10:30:55.522Z,16.87
2018-08-25T10:33:24.446Z,17.27
2018-08-25T10:35:53.417Z,17.20
2018-08-25T10:38:22.432Z,17.05
2018-08-25T10:40:51.449Z,16.73
2018-08-25T10:43:20.401Z,16.63
2018-08-25T10:45:49.394Z,16.54
2018-08-25T10:48:18.300Z,16.48
2018-08-25T10:50:47.244Z,16.41
2018-08-25T10:53:16.206Z,16.34
2018-08-25T10:55:45.077Z,16.35
2018-08-25T10:58:14.136Z,16.44
2018-08-25T11:00:43.269Z,16.34
2018-08-25T11:03:12.070Z,16.27
2018-08-25T11:05:40.981Z,16.26
2018-08-25T11:08:15.706Z,16.28
2018-08-25T11:10:44.725Z,16.26
2018-08-25T11:13:13.720Z,16.44
2018-08-25T11:15:43.741Z,16.55
2018-08-25T11:18:12.748Z,16.60
2018-08-25T11:20:41.742Z,16.57
2018-08-25T11:23:10.744Z,16.62
2018-08-25T11:25:39.723Z,16.71
2018-08-25T11:28:08.740Z,16.71
2018-08-25T11:30:37.753Z,16.81
2018-08-25T11:33:07.753Z,16.74
2018-08-25T11:35:36.711Z,16.82
2018-08-25T11:38:05.871Z,16.95
2018-08-25T11:40:34.887Z,16.95
2018-08-25T11:43:03.839Z,17.01
2018-08-25T11:45:33.823Z,17.20
2018-08-25T11:48:02.896Z,17.25
2018-08-25T11:50:31.801Z,16.88
2018-08-25T11:53:00.827Z,16.89
2018-08-25T11:55:29.796Z,16.83
2018-08-25T11:57:58.672Z,16.89
2018-08-25T12:00:27.744Z,16.74
2018-08-25T12:02:56.658Z,16.74
2018-08-25T12:05:25.643Z,16.77
2018-08-25T12:07:54.715Z,16.78
2018-08-25T12:10:23.770Z,16.86
2018-08-25T12:12:52.859Z,16.93
2018-08-25T12:15:22.265Z,17.00
2018-08-25T12:17:51.317Z,17.15
2018-08-25T12:20:20.405Z,17.23
2018-08-25T12:22:49.441Z,16.82
2018-08-25T12:25:18.495Z,16.35
2018-08-25T12:27:47.568Z,16.19
2018-08-25T12:30:16.463Z,16.24
2018-08-25T12:32:45.393Z,16.29
2018-08-25T12:35:14.345Z,16.37
2018-08-25T12:37:43.236Z,16.20
2018-08-25T12:40:12.149Z,16.32
2018-08-25T12:42:41.194Z,16.34
2018-08-25T12:45:10.274Z,16.42
2018-08-25T12:47:39.364Z,16.48
2018-08-25T12:50:08.261Z,16.31
2018-08-25T12:52:37.457Z,16.35
2018-08-25T12:55:06.877Z,16.49
2018-08-25T12:57:35.965Z,16.63
2018-08-25T13:00:05.475Z,16.74
2018-08-25T13:02:34.444Z,16.76
2018-08-25T13:05:03.557Z,16.82
2018-08-25T13:07:32.732Z,16.82
2018-08-25T13:10:01.831Z,16.72
2018-08-25T13:12:31.509Z,16.75
2018-08-25T13:15:00.582Z,16.80
2018-08-25T13:17:29.597Z,16.94
2018-08-25T13:19:58.521Z,16.97
2018-08-25T13:22:29.301Z,16.92
2018-08-25T13:24:58.319Z,16.85
2018-08-25T13:27:27.194Z,16.87
2018-08-25T13:29:56.337Z,16.90
2018-08-25T13:32:25.333Z,17.00
2018-08-25T13:34:54.479Z,17.05
2018-08-25T13:37:23.908Z,17.06
2018-08-25T13:39:52.840Z,16.96
2018-08-25T13:42:21.830Z,17.01
2018-08-25T13:44:51.344Z,16.94
2018-08-25T13:47:22.044Z,16.76
2018-08-25T13:49:51.571Z,16.71
2018-08-25T13:52:20.867Z,16.67
2018-08-25T13:54:50.027Z,16.71
2018-08-25T13:57:18.943Z,16.60
2018-08-25T13:59:48.101Z,16.59
2018-08-25T14:02:17.247Z,16.65
2018-08-25T14:04:46.165Z,16.60
2018-08-25T14:07:15.323Z,16.72
2018-08-25T14:09:44.337Z,16.85
2018-08-25T14:12:13.254Z,16.91
2018-08-25T14:14:42.209Z,16.84
2018-08-25T14:17:11.878Z,16.90
2018-08-25T14:19:41.103Z,16.85
2018-08-25T14:22:11.629Z,16.66
2018-08-25T14:24:42.619Z,16.65
2018-08-25T14:27:11.529Z,16.54
2018-08-25T14:29:41.418Z,16.48
2018-08-25T14:32:11.364Z,16.45
2018-08-25T14:34:40.232Z,16.43
2018-08-25T14:37:09.134Z,16.23
2018-08-25T14:39:38.969Z,16.44
2018-08-25T14:42:08.152Z,16.46
2018-08-25T14:44:37.078Z,16.60
2018-08-25T14:47:06.267Z,16.68
2018-08-25T14:49:35.507Z,16.71
2018-08-25T14:52:04.455Z,16.55
2018-08-25T14:54:34.431Z,16.67
2018-08-25T14:57:04.203Z,16.63
2018-08-25T14:59:33.114Z,16.59
2018-08-25T15:02:02.012Z,16.56
2018-08-25T15:04:30.996Z,16.49
2018-08-25T15:07:00.631Z,16.70
2018-08-25T15:09:29.832Z,16.69
2018-08-25T15:11:59.086Z,16.41
2018-08-25T15:14:30.816Z,16.28
2018-08-25T15:16:59.968Z,16.50
2018-08-25T15:19:29.160Z,16.49
2018-08-25T15:21:58.134Z,16.73
2018-08-25T15:24:28.179Z,16.68
2018-08-25T15:26:57.173Z,16.78
2018-08-25T15:29:26.434Z,16.89
2018-08-25T15:31:56.008Z,16.98
2018-08-25T15:34:25.220Z,17.09
2018-08-25T15:36:54.144Z,17.15
2018-08-25T15:39:23.048Z,17.04
2018-08-25T15:41:52.063Z,16.96
2018-08-25T15:44:21.083Z,17.15
2018-08-25T15:46:49.956Z,17.09
2018-08-25T15:49:19.941Z,17.14
2018-08-25T15:51:49.560Z,17.28
2018-08-25T15:54:18.752Z,17.30
2018-08-25T15:56:48.476Z,17.23
2018-08-25T15:59:18.577Z,17.28
2018-08-25T16:01:47.632Z,17.28
2018-08-25T16:04:16.588Z,17.31
2018-08-25T16:06:45.781Z,17.49
2018-08-25T16:09:15.655Z,17.44
2018-08-25T16:11:44.577Z,17.53
2018-08-25T16:14:14.031Z,17.53
2018-08-25T16:16:43.819Z,17.40
2018-08-25T16:19:12.770Z,17.37
2018-08-25T16:21:42.701Z,17.40
2018-08-25T16:24:11.743Z,17.45
2018-08-25T16:26:40.947Z,17.50
2018-08-25T16:29:09.812Z,17.50
2018-08-25T16:31:39.093Z,17.46
2018-08-25T16:34:08.300Z,17.39
2018-08-25T16:36:37.275Z,17.31
2018-08-25T16:39:07.356Z,17.33
2018-08-25T16:41:37.191Z,17.32
2018-08-25T16:44:08.683Z,17.24
2018-08-25T16:46:37.916Z,17.34
2018-08-25T16:49:07.583Z,17.28
2018-08-25T16:51:38.015Z,17.23
2018-08-25T16:54:06.981Z,17.21
2018-08-25T16:56:36.195Z,17.17
2018-08-25T16:59:06.916Z,17.06
2018-08-25T17:01:35.910Z,17.18
2018-08-25T17:04:04.896Z,17.07
2018-08-25T17:06:34.223Z,17.12
2018-08-25T17:09:05.144Z,17.19
2018-08-25T17:11:34.165Z,17.17
2018-08-25T17:14:03.068Z,17.08
2018-08-25T17:16:32.299Z,17.11
2018-08-25T17:19:03.915Z,17.01
2018-08-25T17:21:33.203Z,16.95
2018-08-25T17:24:03.242Z,17.05
2018-08-25T17:26:32.176Z,17.03
2018-08-25T17:29:02.103Z,17.02
2018-08-25T17:31:32.688Z,17.06
2018-08-25T17:34:01.928Z,17.03
2018-08-25T17:36:31.207Z,16.92
2018-08-25T17:39:00.242Z,16.89
2018-08-25T17:41:29.584Z,16.92
2018-08-25T17:43:58.808Z,16.91
2018-08-25T17:46:28.168Z,16.97
2018-08-25T17:48:58.268Z,16.94
2018-08-25T17:51:27.921Z,16.89
2018-08-25T17:53:57.986Z,16.90
2018-08-25T17:56:27.334Z,16.86
2018-08-25T17:58:56.676Z,16.86
2018-08-25T18:01:26.193Z,16.84
2018-08-25T18:03:55.483Z,16.77
2018-08-25T18:06:24.361Z,16.79
2018-08-25T18:08:53.627Z,16.74
2018-08-25T18:11:22.579Z,16.74
2018-08-25T18:13:51.885Z,16.76
2018-08-25T18:16:21.383Z,16.75
2018-08-25T18:18:50.654Z,16.75
2018-08-25T18:21:19.809Z,16.76
2018-08-25T18:23:48.880Z,16.76
2018-08-25T18:26:18.014Z,16.79
2018-08-25T18:28:48.514Z,16.71
2018-08-25T18:31:17.865Z,16.75
2018-08-25T18:33:47.079Z,16.58
2018-08-25T18:36:16.286Z,15.14
2018-08-25T18:38:45.546Z,14.98
2018-08-25T18:41:14.963Z,15.05
2018-08-25T18:43:44.467Z,15.20
2018-08-25T18:46:13.995Z,15.33
2018-08-25T18:48:43.027Z,15.40
2018-08-25T18:51:12.937Z,15.55
2018-08-25T18:53:42.222Z,15.59
2018-08-25T18:56:11.318Z,15.65
2018-08-25T18:58:41.208Z,15.65
2018-08-25T19:01:11.287Z,15.66
2018-08-25T19:03:41.633Z,15.63
2018-08-25T19:06:11.004Z,15.63
2018-08-25T19:08:40.024Z,15.69
2018-08-25T19:11:09.022Z,15.61
2018-08-25T19:13:44.262Z,15.72
2018-08-25T19:16:13.856Z,15.74
2018-08-25T19:18:42.902Z,15.73
2018-08-25T19:21:12.197Z,15.75
2018-08-25T19:23:41.877Z,15.75
2018-08-25T19:26:11.143Z,15.78
2018-08-25T19:28:40.626Z,15.83
2018-08-25T19:31:10.350Z,15.79
2018-08-25T19:33:39.564Z,15.80
2018-08-25T19:36:08.792Z,15.79
2018-08-25T19:38:38.366Z,15.83
2018-08-25T19:41:08.111Z,15.80
2018-08-25T19:43:37.404Z,15.73
2018-08-25T19:46:06.997Z,15.72
2018-08-25T19:48:36.731Z,15.70
2018-08-25T19:51:07.350Z,15.74
2018-08-25T19:53:36.658Z,15.78
2018-08-25T19:56:06.025Z,15.82
2018-08-25T19:58:35.094Z,15.79
2018-08-25T20:01:04.706Z,15.82
2018-08-25T20:03:33.978Z,15.82
2018-08-25T20:06:03.076Z,15.84
2018-08-25T20:08:31.982Z,15.81
2018-08-25T20:11:01.404Z,15.80
2018-08-25T20:13:30.686Z,15.86
2018-08-25T20:15:59.904Z,15.78
2018-08-25T20:18:29.460Z,15.83
2018-08-25T20:20:58.765Z,15.82
2018-08-25T20:23:27.723Z,15.81
2018-08-25T20:25:57.168Z,15.86
2018-08-25T20:28:26.168Z,15.83
2018-08-25T20:30:56.388Z,15.79
2018-08-25T20:33:25.595Z,15.77
2018-08-25T20:35:55.015Z,15.79
2018-08-25T20:38:24.273Z,15.85
2018-08-25T20:40:53.621Z,15.84
2018-08-25T20:43:22.612Z,15.83
2018-08-25T20:45:51.960Z,15.86
2018-08-25T20:48:21.069Z,15.90
2018-08-25T20:50:50.188Z,15.95
2018-08-25T20:53:19.241Z,15.96
2018-08-25T20:55:48.536Z,15.96
2018-08-25T20:58:17.499Z,16.00
2018-08-25T21:00:46.511Z,16.01
2018-08-25T21:03:15.489Z,15.99
2018-08-25T21:05:45.509Z,15.99
2018-08-25T21:08:14.543Z,15.77
2018-08-25T21:10:43.492Z,15.56
2018-08-25T21:13:12.545Z,15.61
2018-08-25T21:15:41.595Z,15.54
2018-08-25T21:18:10.561Z,15.38
2018-08-25T21:20:40.457Z,15.37
2018-08-25T21:23:09.635Z,15.47
2018-08-25T21:25:38.652Z,15.52
2018-08-25T21:28:07.797Z,15.36
2018-08-25T21:30:36.785Z,15.35
2018-08-25T21:33:05.808Z,15.36
2018-08-25T21:35:35.159Z,15.45
2018-08-25T21:38:04.050Z,15.48
2018-08-25T21:40:33.016Z,15.49
2018-08-25T21:43:01.915Z,15.52
2018-08-25T21:45:30.905Z,15.54
2018-08-25T21:47:59.818Z,15.58
2018-08-25T21:50:28.824Z,15.56
2018-08-25T21:52:57.787Z,15.60
2018-08-25T21:55:26.799Z,15.50
2018-08-25T21:57:55.815Z,15.56
2018-08-25T22:00:24.804Z,15.54
2018-08-25T22:02:59.302Z,15.53
2018-08-25T22:05:33.820Z,15.58
2018-08-25T22:08:02.776Z,15.58
2018-08-25T22:10:31.712Z,15.56
2018-08-25T22:13:00.632Z,15.52
2018-08-25T22:15:29.539Z,15.55
2018-08-25T22:17:58.516Z,15.57
2018-08-25T22:20:27.410Z,15.58
2018-08-25T22:22:56.335Z,15.57
2018-08-25T22:25:25.275Z,15.53
2018-08-25T22:27:54.439Z,15.57
2018-08-25T22:30:23.404Z,15.47
2018-08-25T22:32:52.400Z,15.42
2018-08-25T22:35:21.356Z,15.53
2018-08-25T22:37:50.269Z,15.56
2018-08-25T22:40:19.397Z,15.30
2018-08-25T22:42:48.379Z,15.25
2018-08-25T22:45:17.343Z,15.12
2018-08-25T22:47:46.321Z,15.03
2018-08-25T22:50:15.196Z,15.16
2018-08-25T22:52:50.716Z,15.16
2018-08-25T22:55:20.927Z,15.25
2018-08-25T22:57:50.153Z,15.23
2018-08-25T23:00:19.580Z,15.20
2018-08-25T23:02:48.467Z,15.23
2018-08-25T23:05:17.419Z,15.28
2018-08-25T23:07:46.277Z,15.26
2018-08-25T23:10:15.211Z,15.29
2018-08-25T23:12:44.213Z,15.27
2018-08-25T23:15:13.093Z,15.34
2018-08-25T23:17:41.987Z,15.38
2018-08-25T23:20:10.922Z,15.44
2018-08-25T23:22:39.835Z,15.41
2018-08-25T23:25:08.933Z,15.34
2018-08-25T23:27:37.805Z,15.28
2018-08-25T23:30:06.783Z,15.27
2018-08-25T23:32:36.965Z,15.25
2018-08-25T23:35:06.774Z,15.24
2018-08-25T23:37:35.663Z,15.23
2018-08-25T23:40:04.599Z,15.15
2018-08-25T23:42:33.487Z,15.21
2018-08-25T23:45:02.477Z,15.12
2018-08-25T23:50:16.505Z,15.22
2018-08-25T23:52:46.809Z,15.17
2018-08-25T23:55:16.107Z,15.09
2018-08-25T23:57:46.072Z,14.95
